Delta Mariner — WCZ7837 — position and weather

sailwx.info

Track history (hours):
 
Tides and Currents Weather Stations Pressure Air Temp Water Temp Dewpoint Dewpoint Depression Visibility Wind Speed Wind Dir Waves Ship Positions

Delta Mariner

Owner: FOSS MARITIME COMPANY, SEATTLE, WA. More information available from US FCC via Universal Licensing System and Coast Guard Vessel Documentation Center.

Last reported at 2017-Nov-16 17:53 UTC. Time now 2017-Nov-25 02:04 UTC.
Position N 25°54' W 079°54'.
Warning: this ship's position is 8 days out of date.

Length 95 m; draft 2.9 m.

Type: Cargo ship. MMSI: 338731000.

Date/timePositionNaut miles runAvg speedWind from/ knotsBaromVisibWave heightAir tempDewpointWater temp
2017-Nov-16 17:53N 25°54' W 079°54'410.1
2017-Nov-16 17:30N 25°51' W 079°54'510.2
2017-Nov-16 17:00N 25°45' W 079°55'510.4
2017-Nov-16 16:30N 25°40' W 079°56'510.1
2017-Nov-16 16:00N 25°35' W 079°56'510.0
2017-Nov-16 15:29N 25°30' W 079°57'  
2017-Nov-12 08:55N 31°39' W 091°24'712.8
2017-Nov-12 08:23N 31°45' W 091°22'513.4
2017-Nov-12 08:00N 31°50' W 091°21'1911.6
2017-Nov-12 06:21N 32°03' W 091°04'412.5
2017-Nov-12 06:00N 32°06' W 091°06'5 9.7
2017-Nov-12 05:31N 32°08' W 091°01'713.0
2017-Nov-12 05:00N 32°14' W 090°59'611.5
2017-Nov-12 04:30N 32°19' W 090°55'5 9.6
2017-Nov-12 04:00N 32°21' W 090°59'510.0
2017-Nov-12 03:30N 32°26' W 091°02'612.1
2017-Nov-12 03:00N 32°30' W 091°07'612.1
2017-Nov-12 02:30N 32°36' W 091°08'910.4
2017-Nov-12 01:39N 32°44' W 091°03'413.0
2017-Nov-12 01:19N 32°44' W 091°09'  
Track history (hours):
 
Tides and Currents Weather Stations Pressure Air Temp Water Temp Dewpoint Dewpoint Depression Visibility Wind Speed Wind Dir Waves Ship Positions

Delta Mariner

Owner: FOSS MARITIME COMPANY, SEATTLE, WA. More information available from US FCC via Universal Licensing System and Coast Guard Vessel Documentation Center.

Last reported at 2017-Nov-16 17:53 UTC. Time now 2017-Nov-25 02:04 UTC.
Position N 25°54' W 079°54'.
Warning: this ship's position is 8 days out of date.

Length 95 m; draft 2.9 m.

Type: Cargo ship. MMSI: 338731000.

Date/timePositionNaut miles runAvg speedWind from/ knotsBaromVisibWave heightAir tempDewpointWater temp
2017-Nov-16 17:53N 25°54' W 079°54'410.1
2017-Nov-16 17:30N 25°51' W 079°54'510.2
2017-Nov-16 17:00N 25°45' W 079°55'510.4
2017-Nov-16 16:30N 25°40' W 079°56'510.1
2017-Nov-16 16:00N 25°35' W 079°56'510.0
2017-Nov-16 15:29N 25°30' W 079°57'  
2017-Nov-12 08:55N 31°39' W 091°24'712.8
2017-Nov-12 08:23N 31°45' W 091°22'513.4
2017-Nov-12 08:00N 31°50' W 091°21'1911.6
2017-Nov-12 06:21N 32°03' W 091°04'412.5
2017-Nov-12 06:00N 32°06' W 091°06'5 9.7
2017-Nov-12 05:31N 32°08' W 091°01'713.0
2017-Nov-12 05:00N 32°14' W 090°59'611.5
2017-Nov-12 04:30N 32°19' W 090°55'5 9.6
2017-Nov-12 04:00N 32°21' W 090°59'510.0
2017-Nov-12 03:30N 32°26' W 091°02'612.1
2017-Nov-12 03:00N 32°30' W 091°07'612.1
2017-Nov-12 02:30N 32°36' W 091°08'910.4
2017-Nov-12 01:39N 32°44' W 091°03'413.0
2017-Nov-12 01:19N 32°44' W 091°09'  

Dump ship's entire track history